createdAt,value
2018-12-31T00:00:08.753Z,9.20
2018-12-31T00:02:37.896Z,9.30
2018-12-31T00:05:06.350Z,9.30
2018-12-31T00:07:54.118Z,9.30
2018-12-31T00:10:22.577Z,9.30
2018-12-31T00:12:51.020Z,9.40
2018-12-31T00:15:19.472Z,9.40
2018-12-31T00:17:47.911Z,9.40
2018-12-31T00:20:16.375Z,9.50
2018-12-31T00:22:44.821Z,9.40
2018-12-31T00:25:13.271Z,9.40
2018-12-31T00:27:41.703Z,9.40
2018-12-31T00:30:10.169Z,9.50
2018-12-31T00:32:38.605Z,9.40
2018-12-31T00:35:07.191Z,9.40
2018-12-31T00:37:35.737Z,9.40
2018-12-31T00:40:04.982Z,9.40
2018-12-31T00:42:33.428Z,9.40
2018-12-31T00:45:01.872Z,9.40
2018-12-31T00:47:30.333Z,9.40
2018-12-31T00:49:58.795Z,9.40
2018-12-31T00:52:27.255Z,9.40
2018-12-31T00:54:55.699Z,9.40
2018-12-31T00:57:24.152Z,9.40
2018-12-31T00:59:52.587Z,9.40
2018-12-31T01:02:21.042Z,9.40
2018-12-31T01:04:49.475Z,9.40
2018-12-31T01:07:18.024Z,9.40
2018-12-31T01:09:46.461Z,9.40
2018-12-31T01:12:14.926Z,9.40
2018-12-31T01:14:43.379Z,9.40
2018-12-31T01:17:11.832Z,9.40
2018-12-31T01:19:40.271Z,9.40
2018-12-31T01:22:08.732Z,9.40
2018-12-31T01:24:38.035Z,9.40
2018-12-31T01:27:06.471Z,9.30
2018-12-31T01:29:34.919Z,9.30
2018-12-31T01:32:03.362Z,9.30
2018-12-31T01:34:51.148Z,9.30
2018-12-31T01:37:19.609Z,9.30
2018-12-31T01:39:48.081Z,9.30
2018-12-31T01:42:16.519Z,9.30
2018-12-31T01:44:45.957Z,9.30
2018-12-31T01:47:14.388Z,9.30
2018-12-31T01:49:42.851Z,9.30
2018-12-31T01:52:11.284Z,9.30
2018-12-31T01:54:39.735Z,9.40
2018-12-31T01:57:08.172Z,9.30
2018-12-31T01:59:42.779Z,9.30
2018-12-31T02:02:11.220Z,9.30
2018-12-31T02:04:39.752Z,9.30
2018-12-31T02:07:08.188Z,9.30
2018-12-31T02:09:36.656Z,9.40
2018-12-31T02:12:07.119Z,9.40
2018-12-31T02:14:54.921Z,9.50
2018-12-31T02:17:23.355Z,9.40
2018-12-31T02:19:51.817Z,9.40
2018-12-31T02:22:20.275Z,9.40
2018-12-31T02:24:48.730Z,9.50
2018-12-31T02:27:17.179Z,9.50
2018-12-31T02:29:45.622Z,9.50
2018-12-31T02:32:14.537Z,9.50
2018-12-31T02:34:43.133Z,9.50
2018-12-31T02:37:12.651Z,9.50
2018-12-31T02:39:41.087Z,9.50
2018-12-31T02:42:09.543Z,9.50
2018-12-31T02:44:37.972Z,9.50
2018-12-31T02:47:06.414Z,9.50
2018-12-31T02:49:34.857Z,9.50
2018-12-31T02:52:03.367Z,9.50
2018-12-31T02:54:51.183Z,9.50
2018-12-31T02:57:19.632Z,9.50
2018-12-31T02:59:48.055Z,9.50
2018-12-31T03:02:16.502Z,9.50
2018-12-31T03:04:44.935Z,9.50
2018-12-31T03:07:13.368Z,9.50
2018-12-31T03:09:41.817Z,9.50
2018-12-31T03:12:10.250Z,9.50
2018-12-31T03:14:38.699Z,9.50
2018-12-31T03:17:07.135Z,9.60
2018-12-31T03:19:35.594Z,9.60
2018-12-31T03:22:04.032Z,9.60
2018-12-31T03:24:32.475Z,9.70
2018-12-31T03:27:00.898Z,9.70
2018-12-31T03:29:29.350Z,9.70
2018-12-31T03:31:57.787Z,9.70
2018-12-31T03:34:26.233Z,9.70
2018-12-31T03:36:54.672Z,9.70
2018-12-31T03:39:23.140Z,9.60
2018-12-31T03:41:51.577Z,9.60
2018-12-31T03:44:20.016Z,9.60
2018-12-31T03:46:48.458Z,9.60
2018-12-31T03:49:16.883Z,9.60
2018-12-31T03:51:45.347Z,9.60
2018-12-31T03:54:13.768Z,9.60
2018-12-31T03:56:42.289Z,9.60
2018-12-31T03:59:10.795Z,9.60
2018-12-31T04:01:39.243Z,9.60
2018-12-31T04:04:07.735Z,9.60
2018-12-31T04:06:36.176Z,9.60
2018-12-31T04:09:06.158Z,9.60
2018-12-31T04:11:34.689Z,9.60
2018-12-31T04:14:03.138Z,9.60
2018-12-31T04:16:31.563Z,9.60
2018-12-31T04:19:00.034Z,9.60
2018-12-31T04:21:28.468Z,9.60
2018-12-31T04:23:56.916Z,9.60
2018-12-31T04:26:25.351Z,9.50
2018-12-31T04:28:53.870Z,9.50
2018-12-31T04:31:41.648Z,9.50
2018-12-31T04:34:10.099Z,9.60
2018-12-31T04:36:38.540Z,9.50
2018-12-31T04:39:07.648Z,9.60
2018-12-31T04:41:55.490Z,9.60
2018-12-31T04:44:23.934Z,9.60
2018-12-31T04:46:52.380Z,9.50
2018-12-31T04:49:20.841Z,9.50
2018-12-31T04:51:49.284Z,9.50
2018-12-31T04:54:17.724Z,9.50
2018-12-31T04:56:46.177Z,9.50
2018-12-31T04:59:14.621Z,9.50
2018-12-31T05:01:43.077Z,9.50
2018-12-31T05:04:11.523Z,9.50
2018-12-31T05:06:39.968Z,9.50
2018-12-31T05:09:08.479Z,9.60
2018-12-31T05:11:36.945Z,9.60
2018-12-31T05:14:05.378Z,9.70
2018-12-31T05:16:33.968Z,9.70
2018-12-31T05:19:02.522Z,9.60
2018-12-31T05:21:31.142Z,9.60
2018-12-31T05:23:59.696Z,9.70
2018-12-31T05:26:28.149Z,9.70
2018-12-31T05:28:56.679Z,9.70
2018-12-31T05:31:25.132Z,9.70
2018-12-31T05:33:53.593Z,9.70
2018-12-31T05:36:22.035Z,9.70
2018-12-31T05:39:09.828Z,9.70
2018-12-31T05:41:38.262Z,9.60
2018-12-31T05:44:06.753Z,9.60
2018-12-31T05:46:35.194Z,9.70
2018-12-31T05:49:03.653Z,9.60
2018-12-31T05:51:32.100Z,9.70
2018-12-31T05:54:00.542Z,9.70
2018-12-31T05:56:28.999Z,9.70
2018-12-31T05:58:57.440Z,9.80
2018-12-31T06:01:25.906Z,9.80
2018-12-31T06:03:54.343Z,9.80
2018-12-31T06:06:22.798Z,9.80
2018-12-31T06:08:51.231Z,9.80
2018-12-31T06:11:19.688Z,9.90
2018-12-31T06:13:48.126Z,9.90
2018-12-31T06:16:16.635Z,9.90
2018-12-31T06:18:45.104Z,9.90
2018-12-31T06:21:13.560Z,9.90
2018-12-31T06:23:41.999Z,9.90
2018-12-31T06:26:29.796Z,9.90
2018-12-31T06:28:58.235Z,9.80
2018-12-31T06:31:26.688Z,9.80
2018-12-31T06:33:55.124Z,9.90
2018-12-31T06:36:23.653Z,9.90
2018-12-31T06:38:52.179Z,9.90
2018-12-31T06:41:20.608Z,9.90
2018-12-31T06:43:49.064Z,9.90
2018-12-31T06:46:17.501Z,9.80
2018-12-31T06:48:45.963Z,9.90
2018-12-31T06:51:14.404Z,9.80
2018-12-31T06:53:42.857Z,9.80
2018-12-31T06:56:11.296Z,9.80
2018-12-31T06:58:39.761Z,9.80
2018-12-31T07:01:08.200Z,9.80
2018-12-31T07:03:36.652Z,9.80
2018-12-31T07:06:05.139Z,9.80
2018-12-31T07:08:33.670Z,9.80
2018-12-31T07:11:02.113Z,9.90
2018-12-31T07:13:30.569Z,9.80
2018-12-31T07:15:59.097Z,9.80
2018-12-31T07:18:27.600Z,9.80
2018-12-31T07:20:56.056Z,9.80
2018-12-31T07:23:43.836Z,9.90
2018-12-31T07:26:12.289Z,9.80
2018-12-31T07:28:40.719Z,9.80
2018-12-31T07:31:10.219Z,9.80
2018-12-31T07:33:38.655Z,9.70
2018-12-31T07:36:07.184Z,9.80
2018-12-31T07:38:35.619Z,9.80
2018-12-31T07:41:04.066Z,9.80
2018-12-31T07:43:32.511Z,9.80
2018-12-31T07:46:00.965Z,9.80
2018-12-31T07:48:29.410Z,9.80
2018-12-31T07:50:57.868Z,9.80
2018-12-31T07:53:26.324Z,9.80
2018-12-31T07:56:00.567Z,9.90
2018-12-31T07:58:48.336Z,9.80
2018-12-31T08:01:16.793Z,9.80
2018-12-31T08:03:45.227Z,9.90
2018-12-31T08:06:13.684Z,9.90
2018-12-31T08:08:42.115Z,9.90
2018-12-31T08:11:10.553Z,9.90
2018-12-31T08:13:39.012Z,9.90
2018-12-31T08:16:07.448Z,9.90
2018-12-31T08:18:35.914Z,9.90
2018-12-31T08:21:04.356Z,10.00
2018-12-31T08:23:32.819Z,10.00
2018-12-31T08:26:01.287Z,10.10
2018-12-31T08:28:29.747Z,10.10
2018-12-31T08:30:58.191Z,10.10
2018-12-31T08:33:26.650Z,10.00
2018-12-31T08:35:55.108Z,10.00
2018-12-31T08:38:23.569Z,10.00
2018-12-31T08:40:52.015Z,10.00
2018-12-31T08:43:20.544Z,10.00
2018-12-31T08:45:49.012Z,10.00
2018-12-31T08:48:17.527Z,10.00
2018-12-31T08:50:45.973Z,10.00
2018-12-31T08:53:14.471Z,10.00
2018-12-31T08:55:42.926Z,10.00
2018-12-31T08:58:11.361Z,10.10
2018-12-31T09:00:39.852Z,10.10
2018-12-31T09:03:27.638Z,10.10
2018-12-31T09:05:56.106Z,10.10
2018-12-31T09:08:24.549Z,10.20
2018-12-31T09:10:53.041Z,10.10
2018-12-31T09:13:21.531Z,10.20
2018-12-31T09:15:49.994Z,10.20
2018-12-31T09:18:18.450Z,10.20
2018-12-31T09:20:46.907Z,10.20
2018-12-31T09:23:15.356Z,10.20
2018-12-31T09:25:43.813Z,10.30
2018-12-31T09:28:12.274Z,10.30
2018-12-31T09:30:46.500Z,10.30
2018-12-31T09:33:34.291Z,10.30
2018-12-31T09:36:02.739Z,10.30
2018-12-31T09:38:31.175Z,10.30
2018-12-31T09:40:59.632Z,10.30
2018-12-31T09:43:28.082Z,10.30
2018-12-31T09:45:56.550Z,10.30
2018-12-31T09:48:25.007Z,10.30
2018-12-31T09:50:53.500Z,10.30
2018-12-31T09:53:21.947Z,10.30
2018-12-31T09:56:09.740Z,10.30
2018-12-31T09:58:38.191Z,10.30
2018-12-31T10:01:08.745Z,10.30
2018-12-31T10:03:37.197Z,10.30
2018-12-31T10:06:05.660Z,10.30
2018-12-31T10:08:34.183Z,10.40
2018-12-31T10:11:02.723Z,10.30
2018-12-31T10:13:31.171Z,10.40
2018-12-31T10:15:59.616Z,10.30
2018-12-31T10:18:28.081Z,10.30
2018-12-31T10:20:56.607Z,10.30
2018-12-31T10:23:25.069Z,10.30
2018-12-31T10:25:53.507Z,10.30
2018-12-31T10:28:21.968Z,10.30
2018-12-31T10:30:50.412Z,10.30
2018-12-31T10:33:19.274Z,10.30
2018-12-31T10:35:47.784Z,10.40
2018-12-31T10:38:17.283Z,10.30
2018-12-31T10:40:45.729Z,10.30
2018-12-31T10:43:14.203Z,10.40
2018-12-31T10:45:42.718Z,10.40
2018-12-31T10:48:11.247Z,10.40
2018-12-31T10:50:39.787Z,10.30
2018-12-31T10:53:08.244Z,10.30
2018-12-31T10:55:36.692Z,10.40
2018-12-31T10:58:05.233Z,10.40
2018-12-31T11:00:33.819Z,10.30
2018-12-31T11:03:02.287Z,10.30
2018-12-31T11:05:50.090Z,10.30
2018-12-31T11:08:18.540Z,10.30
2018-12-31T11:10:47.012Z,10.30
2018-12-31T11:13:15.519Z,10.30
2018-12-31T11:15:43.987Z,10.30
2018-12-31T11:18:12.502Z,10.40
2018-12-31T11:20:40.954Z,10.30
2018-12-31T11:23:09.404Z,10.40
2018-12-31T11:25:37.913Z,10.30
2018-12-31T11:28:06.387Z,10.30
2018-12-31T11:30:34.858Z,10.40
2018-12-31T11:33:03.307Z,10.40
2018-12-31T11:35:31.744Z,10.40
2018-12-31T11:38:00.204Z,10.40
2018-12-31T11:40:47.988Z,10.40
2018-12-31T11:43:16.523Z,10.40
2018-12-31T11:45:45.037Z,10.30
2018-12-31T11:48:13.504Z,10.30
2018-12-31T11:50:41.959Z,10.30
2018-12-31T11:53:10.496Z,10.30
2018-12-31T11:55:38.961Z,10.30
2018-12-31T11:58:07.413Z,10.30
2018-12-31T12:00:35.884Z,10.30
2018-12-31T12:03:04.349Z,10.30
2018-12-31T12:05:32.786Z,10.20
2018-12-31T12:08:01.260Z,10.20
2018-12-31T12:10:29.764Z,10.20
2018-12-31T12:12:58.227Z,10.30
2018-12-31T12:15:26.670Z,10.30
2018-12-31T12:17:55.183Z,10.30
2018-12-31T12:20:23.651Z,10.30
2018-12-31T12:22:52.106Z,10.40
2018-12-31T12:25:20.635Z,10.40
2018-12-31T12:27:49.079Z,10.40
2018-12-31T12:30:17.546Z,10.40
2018-12-31T12:32:46.067Z,10.40
2018-12-31T12:35:33.870Z,10.40
2018-12-31T12:38:02.320Z,10.40
2018-12-31T12:40:30.860Z,10.50
2018-12-31T12:42:59.319Z,10.50
2018-12-31T12:45:47.120Z,10.50
2018-12-31T12:48:15.563Z,10.50
2018-12-31T12:50:44.423Z,10.60
2018-12-31T12:53:32.204Z,10.60
2018-12-31T12:56:00.688Z,10.60
2018-12-31T12:58:29.124Z,10.60
2018-12-31T13:00:57.583Z,10.60
2018-12-31T13:03:26.026Z,10.60
2018-12-31T13:06:00.339Z,10.60
2018-12-31T13:08:28.840Z,10.60
2018-12-31T13:10:57.317Z,10.60
2018-12-31T13:13:25.759Z,10.60
2018-12-31T13:15:54.199Z,10.60
2018-12-31T13:18:42.146Z,10.60
2018-12-31T13:21:10.983Z,10.60
2018-12-31T13:23:39.435Z,10.60
2018-12-31T13:26:27.240Z,10.60
2018-12-31T13:28:55.683Z,10.60
2018-12-31T13:31:24.212Z,10.60
2018-12-31T13:33:52.671Z,10.60
2018-12-31T13:36:21.113Z,10.60
2018-12-31T13:38:49.570Z,10.60
2018-12-31T13:41:18.011Z,10.60
2018-12-31T13:43:46.655Z,10.60
2018-12-31T13:46:15.100Z,10.60
2018-12-31T13:49:02.966Z,10.70
2018-12-31T13:51:31.461Z,10.70
2018-12-31T13:53:59.924Z,10.70
2018-12-31T13:56:28.361Z,10.70
2018-12-31T13:58:56.906Z,10.60
2018-12-31T14:04:13.044Z,10.60
2018-12-31T14:06:41.493Z,10.60
2018-12-31T14:09:10.976Z,10.70
2018-12-31T14:11:44.896Z,10.70
2018-12-31T14:14:14.738Z,10.70
2018-12-31T14:16:43.196Z,10.80
2018-12-31T14:19:11.637Z,10.70
2018-12-31T14:21:41.092Z,10.80
2018-12-31T14:24:09.536Z,10.80
2018-12-31T14:26:37.999Z,10.80
2018-12-31T14:29:06.519Z,10.80
2018-12-31T14:31:36.794Z,10.70
2018-12-31T14:34:05.276Z,10.70
2018-12-31T14:36:53.075Z,10.80
2018-12-31T14:39:21.659Z,10.90
2018-12-31T14:41:50.191Z,10.90
2018-12-31T14:44:18.633Z,10.70
2018-12-31T14:46:47.162Z,10.70
2018-12-31T14:49:15.607Z,10.70
2018-12-31T14:51:44.144Z,10.70
2018-12-31T14:54:12.577Z,10.70
2018-12-31T14:56:41.055Z,10.70
2018-12-31T14:59:09.518Z,10.70
2018-12-31T15:01:40.031Z,10.60
2018-12-31T15:04:08.495Z,10.60
2018-12-31T15:06:37.017Z,10.60
2018-12-31T15:09:06.828Z,10.70
2018-12-31T15:11:35.280Z,10.60
2018-12-31T15:14:05.827Z,10.60
2018-12-31T15:16:34.277Z,10.60
2018-12-31T15:19:02.821Z,10.60
2018-12-31T15:21:31.388Z,10.60
2018-12-31T15:23:59.863Z,10.60
2018-12-31T15:26:28.380Z,10.60
2018-12-31T15:28:56.839Z,10.60
2018-12-31T15:31:25.304Z,10.50
2018-12-31T15:33:53.855Z,10.50
2018-12-31T15:36:22.380Z,10.60
2018-12-31T15:38:51.347Z,10.60
2018-12-31T15:41:19.883Z,10.60
2018-12-31T15:43:48.327Z,10.60
2018-12-31T15:46:20.291Z,10.60
2018-12-31T15:48:46.953Z,10.70
2018-12-31T15:51:15.830Z,10.60
2018-12-31T15:53:44.352Z,10.60
2018-12-31T15:56:12.813Z,10.60
2018-12-31T15:58:41.299Z,10.60
2018-12-31T16:01:09.759Z,10.60
2018-12-31T16:03:38.519Z,10.60
2018-12-31T16:06:07.051Z,10.50
2018-12-31T16:08:35.500Z,10.50
2018-12-31T16:11:03.952Z,10.50
2018-12-31T16:13:38.284Z,10.50
2018-12-31T16:16:07.232Z,10.60
2018-12-31T16:18:35.759Z,10.50
2018-12-31T16:21:10.128Z,10.50
2018-12-31T16:23:38.621Z,10.50
2018-12-31T16:26:07.124Z,10.50
2018-12-31T16:28:35.798Z,10.40
2018-12-31T16:31:04.311Z,10.40
2018-12-31T16:33:32.774Z,10.40
2018-12-31T16:36:01.211Z,10.40
2018-12-31T16:38:29.675Z,10.40
2018-12-31T16:40:58.627Z,10.40
2018-12-31T16:43:27.119Z,10.50
2018-12-31T16:45:55.888Z,10.40
2018-12-31T16:48:24.388Z,10.50
2018-12-31T16:50:53.012Z,10.50
2018-12-31T16:53:41.192Z,10.50
2018-12-31T16:56:09.644Z,10.50
2018-12-31T16:58:38.104Z,10.50
2018-12-31T17:01:06.560Z,10.50
2018-12-31T17:03:35.481Z,10.50
2018-12-31T17:06:04.000Z,10.60
2018-12-31T17:08:32.439Z,10.50
2018-12-31T17:11:00.905Z,10.50
2018-12-31T17:13:31.342Z,10.60
2018-12-31T17:16:06.598Z,10.60
2018-12-31T17:18:35.116Z,10.60
2018-12-31T17:21:22.983Z,10.60
2018-12-31T17:23:51.503Z,10.70
2018-12-31T17:26:19.990Z,10.60
2018-12-31T17:29:07.913Z,10.60
2018-12-31T17:31:36.409Z,10.70
2018-12-31T17:34:05.053Z,10.70
2018-12-31T17:36:33.568Z,10.70
2018-12-31T17:39:02.024Z,10.60
2018-12-31T17:41:30.460Z,10.70
2018-12-31T17:43:58.938Z,10.70
2018-12-31T17:46:27.439Z,10.60
2018-12-31T17:48:55.981Z,10.60
2018-12-31T17:51:24.424Z,10.70
2018-12-31T17:53:52.969Z,10.70
2018-12-31T17:56:21.550Z,10.70
2018-12-31T17:58:50.046Z,10.60
2018-12-31T18:01:18.782Z,10.60
2018-12-31T18:03:47.292Z,10.60
2018-12-31T18:06:16.014Z,10.60
2018-12-31T18:08:44.527Z,10.60
2018-12-31T18:11:12.996Z,10.50
2018-12-31T18:13:41.443Z,10.50
2018-12-31T18:16:09.976Z,10.60
2018-12-31T18:18:38.424Z,10.60
2018-12-31T18:21:06.958Z,10.60
2018-12-31T18:23:35.399Z,10.60
2018-12-31T18:26:03.971Z,10.60
2018-12-31T18:28:51.781Z,10.50
2018-12-31T18:31:20.252Z,10.50
2018-12-31T18:33:48.699Z,10.40
2018-12-31T18:36:17.626Z,10.30
2018-12-31T18:38:46.101Z,10.30
2018-12-31T18:41:14.617Z,10.30
2018-12-31T18:43:43.079Z,10.30
2018-12-31T18:46:11.593Z,10.30
2018-12-31T18:48:40.056Z,10.30
2018-12-31T18:51:08.579Z,10.30
2018-12-31T18:53:37.039Z,10.20
2018-12-31T18:56:05.484Z,10.20
2018-12-31T18:58:33.976Z,10.20
2018-12-31T19:01:02.416Z,10.20
2018-12-31T19:03:31.159Z,10.20
2018-12-31T19:05:59.599Z,10.20
2018-12-31T19:08:28.059Z,10.20
2018-12-31T19:10:56.507Z,10.20
2018-12-31T19:13:24.964Z,10.20
2018-12-31T19:15:53.793Z,10.20
2018-12-31T19:18:22.304Z,10.20
2018-12-31T19:20:50.836Z,10.20
2018-12-31T19:23:19.318Z,10.20
2018-12-31T19:25:47.811Z,10.10
2018-12-31T19:28:16.264Z,10.10
2018-12-31T19:30:44.801Z,10.10
2018-12-31T19:33:13.251Z,10.10
2018-12-31T19:35:41.786Z,10.10
2018-12-31T19:38:10.235Z,10.10
2018-12-31T19:40:38.766Z,10.20
2018-12-31T19:43:07.590Z,10.10
2018-12-31T19:45:36.085Z,10.10
2018-12-31T19:48:04.604Z,10.10
2018-12-31T19:50:33.120Z,10.10
2018-12-31T19:53:01.667Z,10.10
2018-12-31T19:55:30.397Z,10.10
2018-12-31T19:57:59.020Z,10.10
2018-12-31T20:00:27.545Z,10.00
2018-12-31T20:02:58.872Z,10.00
2018-12-31T20:05:27.324Z,10.10
2018-12-31T20:08:01.579Z,10.00
2018-12-31T20:10:30.041Z,10.00
2018-12-31T20:12:58.504Z,10.00
2018-12-31T20:15:26.946Z,10.00
2018-12-31T20:18:01.128Z,10.00
2018-12-31T20:20:29.972Z,10.10
2018-12-31T20:22:58.444Z,10.10
2018-12-31T20:25:26.990Z,10.10
2018-12-31T20:27:55.509Z,10.00
2018-12-31T20:30:24.035Z,10.00
2018-12-31T20:32:52.551Z,10.00
2018-12-31T20:35:21.008Z,10.00
2018-12-31T20:37:49.460Z,10.00
2018-12-31T20:40:17.987Z,9.90
2018-12-31T20:42:46.446Z,9.90
2018-12-31T20:45:14.905Z,9.90
2018-12-31T20:47:43.422Z,9.90
2018-12-31T20:50:11.945Z,9.90
2018-12-31T20:52:40.379Z,10.00
2018-12-31T20:55:08.819Z,10.00
2018-12-31T20:57:37.328Z,10.00
2018-12-31T21:00:07.783Z,10.00
2018-12-31T21:02:36.703Z,10.00
2018-12-31T21:05:06.006Z,10.00
2018-12-31T21:07:34.917Z,10.00
2018-12-31T21:10:04.505Z,10.00
2018-12-31T21:12:32.969Z,10.00
2018-12-31T21:15:04.427Z,10.00
2018-12-31T21:17:32.963Z,10.00
2018-12-31T21:20:01.487Z,10.10
2018-12-31T21:22:30.036Z,10.00
2018-12-31T21:24:58.522Z,10.10
2018-12-31T21:27:27.366Z,10.00
2018-12-31T21:29:55.820Z,10.10
2018-12-31T21:32:24.349Z,10.00
2018-12-31T21:34:52.799Z,10.00
2018-12-31T21:37:21.247Z,10.00
2018-12-31T21:39:49.688Z,10.10
2018-12-31T21:42:18.151Z,10.10
2018-12-31T21:44:46.675Z,10.10
2018-12-31T21:47:15.143Z,10.10
2018-12-31T21:49:43.587Z,10.00
2018-12-31T21:52:12.048Z,10.10
2018-12-31T21:54:40.981Z,10.10
2018-12-31T21:57:09.443Z,10.10
2018-12-31T21:59:37.880Z,10.10
2018-12-31T22:02:06.404Z,10.00
2018-12-31T22:04:34.937Z,10.00
2018-12-31T22:07:03.575Z,10.10
2018-12-31T22:09:33.154Z,10.00
2018-12-31T22:12:01.672Z,10.00
2018-12-31T22:14:30.205Z,10.00
2018-12-31T22:16:58.720Z,10.00
2018-12-31T22:19:27.178Z,10.00
2018-12-31T22:21:57.093Z,10.00
2018-12-31T22:24:25.620Z,10.00
2018-12-31T22:26:54.061Z,10.10
2018-12-31T22:29:22.573Z,10.10
2018-12-31T22:31:51.038Z,10.10
2018-12-31T22:34:19.944Z,10.00
2018-12-31T22:36:48.391Z,10.00
2018-12-31T22:39:16.852Z,10.00
2018-12-31T22:41:45.291Z,10.00
2018-12-31T22:44:33.096Z,10.00
2018-12-31T22:47:01.563Z,10.00
2018-12-31T22:49:30.000Z,9.90
2018-12-31T22:51:58.469Z,9.90
2018-12-31T22:54:26.997Z,9.90
2018-12-31T22:56:55.515Z,9.90
2018-12-31T22:59:23.963Z,10.00
2018-12-31T23:01:52.417Z,10.00
2018-12-31T23:04:20.864Z,10.00
2018-12-31T23:06:50.171Z,9.90
2018-12-31T23:09:18.759Z,10.00
2018-12-31T23:11:47.235Z,10.00
2018-12-31T23:14:15.684Z,10.00
2018-12-31T23:16:44.457Z,9.90
2018-12-31T23:19:12.980Z,9.90
2018-12-31T23:21:41.510Z,10.00
2018-12-31T23:24:09.955Z,9.90
2018-12-31T23:26:38.472Z,9.90
2018-12-31T23:29:08.020Z,9.90
2018-12-31T23:31:36.459Z,9.90
2018-12-31T23:34:05.916Z,9.90
2018-12-31T23:36:34.904Z,9.90
2018-12-31T23:39:05.294Z,10.00
2018-12-31T23:41:34.076Z,9.90
2018-12-31T23:44:02.531Z,9.90
2018-12-31T23:46:30.979Z,9.90
2018-12-31T23:48:59.811Z,9.90
2018-12-31T23:51:28.258Z,9.90
2018-12-31T23:53:56.731Z,9.90
2018-12-31T23:56:25.184Z,9.80
2018-12-31T23:58:54.254Z,9.80
